Time;durP1;ratioP1;P1;durP2;ratioP2;P2;SDS_P1;SDS_P2;PMS_P1;PMS_P2;Temp;Humidity;BMP_temperature;BMP_pressure;BME280_temperature;BME280_humidity;BME280_pressure;Samples;Min_cycle;Max_cycle;Signal;HPM_P1;HPM_P2
2021/12/19 00:02:19;;;;;;;8.40;3.90;;;;;;;4.97;91.91;100896.16;5117699;27;20043;-47
2021/12/19 00:08:27;;;;;;;5.70;3.33;;;;;;;5.01;91.67;100895.38;5113003;28;20043;-48
2021/12/19 00:10:28;;;;;;;7.45;3.72;;;;;;;5.01;91.34;100881.66;5111540;28;20062;-48
2021/12/19 00:12:57;;;;;;;8.27;3.72;;;;;;;5.02;91.21;100884.25;5115456;28;21987;-47
2021/12/19 00:15:25;;;;;;;7.03;3.72;;;;;;;5.04;91.05;100871.44;5119026;28;20043;-48
2021/12/19 00:17:52;;;;;;;6.68;4.00;;;;;;;5.04;91.10;100872.31;5114092;28;20039;-50
2021/12/19 00:20:19;;;;;;;12.23;5.00;;;;;;;5.04;91.15;100864.59;5114318;28;20066;-48
2021/12/19 00:22:47;;;;;;;7.85;3.85;;;;;;;5.06;91.17;100870.63;5114776;28;20070;-47
2021/12/19 00:25:14;;;;;;;6.95;3.72;;;;;;;5.06;91.20;100865.47;5124512;27;20039;-48
2021/12/19 00:27:41;;;;;;;8.23;3.90;;;;;;;5.08;90.84;100847.53;5120958;27;20423;-48
2021/12/19 00:30:09;;;;;;;8.43;4.22;;;;;;;5.09;90.81;100856.97;5116513;28;20062;-49
2021/12/19 00:32:40;;;;;;;8.93;4.13;;;;;;;5.11;91.02;100857.84;5113248;28;20043;-51
2021/12/19 00:35:08;;;;;;;9.85;4.32;;;;;;;5.10;91.03;100861.25;5113146;28;20561;-46
2021/12/19 00:37:35;;;;;;;11.40;5.30;;;;;;;5.09;90.81;100849.25;5114530;28;20066;-48
2021/12/19 00:40:02;;;;;;;9.30;4.55;;;;;;;5.11;91.07;100846.72;5120348;28;20061;-47
2021/12/19 00:42:31;;;;;;;12.43;5.30;;;;;;;5.08;90.83;100843.25;5113905;28;20047;-48
2021/12/19 00:45:01;;;;;;;9.48;4.70;;;;;;;5.11;90.81;100851.84;5112973;28;20040;-47
2021/12/19 00:47:29;;;;;;;11.85;5.45;;;;;;;5.12;90.85;100863.84;5114864;28;21419;-47
2021/12/19 00:49:58;;;;;;;11.18;4.63;;;;;;;5.11;90.65;100864.69;5111605;28;20047;-47
2021/12/19 00:52:25;;;;;;;10.00;4.55;;;;;;;5.14;90.65;100857.03;5114111;28;20483;-52
2021/12/19 00:54:52;;;;;;;10.50;4.80;;;;;;;5.14;90.44;100872.44;5111896;28;20492;-46
2021/12/19 00:57:19;;;;;;;10.65;4.90;;;;;;;5.11;90.54;100852.72;5116374;27;20055;-46
2021/12/19 00:59:46;;;;;;;11.52;5.18;;;;;;;5.12;90.55;100853.56;5116267;27;20044;-47
2021/12/19 01:02:13;;;;;;;10.70;4.35;;;;;;;5.14;90.35;100841.63;5114384;27;20074;-48
2021/12/19 01:04:40;;;;;;;11.80;4.82;;;;;;;5.15;90.22;100841.63;5117454;27;20047;-48
2021/12/19 01:07:09;;;;;;;10.25;4.57;;;;;;;5.15;90.29;100835.63;5120183;27;20051;-49
2021/12/19 01:09:36;;;;;;;10.18;4.55;;;;;;;5.16;90.13;100845.06;5114774;27;20480;-47
2021/12/19 01:12:05;;;;;;;12.68;5.05;;;;;;;5.16;90.09;100839.94;5116744;27;20467;-48
2021/12/19 01:14:32;;;;;;;10.57;5.35;;;;;;;5.18;90.46;100841.69;5117044;27;20384;-46
2021/12/19 01:16:59;;;;;;;12.68;5.20;;;;;;;5.18;90.40;100845.97;5118298;27;20475;-45
2021/12/19 01:19:26;;;;;;;10.68;4.10;;;;;;;5.20;90.33;100846.84;5120636;27;20056;-49
2021/12/19 01:21:53;;;;;;;11.48;5.00;;;;;;;5.20;90.01;100846.84;5124666;27;20170;-47
2021/12/19 01:24:22;;;;;;;12.65;5.25;;;;;;;5.22;90.22;100835.78;5115016;27;20059;-48
2021/12/19 01:26:49;;;;;;;12.55;4.78;;;;;;;5.24;90.08;100833.22;5120709;27;20039;-48
2021/12/19 01:29:16;;;;;;;12.25;5.60;;;;;;;5.27;90.17;100830.69;5115253;27;20056;-49
2021/12/19 01:31:43;;;;;;;12.52;4.72;;;;;;;5.27;89.87;100833.28;5115115;27;20059;-49
2021/12/19 01:34:12;;;;;;;11.40;4.88;;;;;;;5.29;89.80;100826.44;5115315;27;20475;-49
2021/12/19 01:36:41;;;;;;;13.40;4.82;;;;;;;5.32;89.59;100818.78;5119354;27;20051;-50
2021/12/19 01:39:11;;;;;;;13.90;5.13;;;;;;;5.31;89.82;100801.63;5116323;27;20096;-48
2021/12/19 01:41:47;;;;;;;11.52;4.40;;;;;;;5.32;89.53;100793.06;5117762;27;20044;-47
2021/12/19 01:44:14;;;;;;;10.35;4.53;;;;;;;5.34;89.83;100783.69;5121520;27;20051;-47
2021/12/19 01:46:42;;;;;;;12.15;4.75;;;;;;;5.31;89.39;100789.63;5115667;27;20066;-47
2021/12/19 01:49:09;;;;;;;13.45;4.50;;;;;;;5.33;89.53;100792.22;5113727;27;20054;-48
2021/12/19 01:51:37;;;;;;;15.05;4.55;;;;;;;5.30;89.25;100787.06;5118896;27;20069;-51
2021/12/19 01:54:06;;;;;;;15.15;4.28;;;;;;;5.33;89.29;100797.38;5118153;27;20047;-47
2021/12/19 01:56:33;;;;;;;12.70;4.38;;;;;;;5.34;89.02;100793.97;5118932;27;22031;-47
2021/12/19 01:59:01;;;;;;;13.93;4.82;;;;;;;5.31;88.67;100788.78;5113023;27;20183;-48
2021/12/19 02:01:29;;;;;;;13.35;4.18;;;;;;;5.28;88.94;100773.31;5113906;27;20062;-49
2021/12/19 02:03:56;;;;;;;12.40;4.20;;;;;;;5.29;89.26;100769.91;5114197;27;20050;-48
2021/12/19 02:06:23;;;;;;;15.18;4.32;;;;;;;5.29;88.80;100739.06;5117754;27;20043;-47
2021/12/19 02:08:53;;;;;;;7.78;3.47;;;;;;;5.29;89.07;100726.22;5112289;27;20058;-50
2021/12/19 02:11:20;;;;;;;11.40;4.47;;;;;;;5.28;88.64;100716.78;5116270;27;20058;-48
2021/12/19 02:13:48;;;;;;;10.23;3.15;;;;;;;5.28;88.52;100703.91;5118859;27;20043;-48
2021/12/19 02:16:16;;;;;;;9.15;3.67;;;;;;;5.29;88.28;100728.78;5116988;27;20502;-49
2021/12/19 02:18:43;;;;;;;12.45;3.75;;;;;;;5.28;88.31;100719.34;5114298;27;21869;-47
2021/12/19 02:21:12;;;;;;;11.25;4.50;;;;;;;5.28;88.06;100743.34;5117562;27;20054;-49
2021/12/19 02:23:39;;;;;;;12.10;4.18;;;;;;;5.29;88.04;100751.91;5115226;27;20097;-47
2021/12/19 02:26:06;;;;;;;14.10;3.85;;;;;;;5.26;87.64;100767.28;5117442;27;20081;-49
2021/12/19 02:28:33;;;;;;;11.65;3.88;;;;;;;5.28;87.59;100769.03;5118378;27;20058;-47
2021/12/19 02:31:00;;;;;;;9.70;4.38;;;;;;;5.28;87.95;100757.91;5119932;27;20058;-50
2021/12/19 02:33:36;;;;;;;12.70;4.30;;;;;;;5.27;87.76;100748.47;5113456;27;20050;-48
2021/12/19 02:36:18;;;;;;;15.18;4.00;;;;;;;5.25;88.01;100752.72;5113228;27;20054;-48
2021/12/19 02:49:44;;;;;;;11.98;3.70;;;;;;;5.18;87.84;100717.47;5113215;27;20104;-49
2021/12/19 02:52:12;;;;;;;10.60;3.63;;;;;;;5.19;87.65;100707.22;5112911;27;20111;-48
2021/12/19 02:54:41;;;;;;;10.23;3.63;;;;;;;5.21;87.41;100709.81;5115848;27;20054;-49
2021/12/19 02:57:08;;;;;;;8.95;3.42;;;;;;;5.21;87.25;100700.41;5115075;27;20054;-48
2021/12/19 02:59:35;;;;;;;12.23;3.90;;;;;;;5.21;87.41;100684.13;5121635;27;20039;-48
2021/12/19 03:02:03;;;;;;;9.63;3.47;;;;;;;5.23;87.33;100687.59;5118420;27;20114;-46
2021/12/19 03:04:31;;;;;;;10.60;3.53;;;;;;;5.22;87.33;100696.13;5114286;27;20047;-50
2021/12/19 03:06:58;;;;;;;14.27;4.07;;;;;;;5.23;87.25;100692.72;5113345;27;20039;-50
2021/12/19 03:09:44;;;;;;;9.43;3.28;;;;;;;5.23;87.03;100674.72;5114593;27;20078;-50
2021/12/19 03:12:26;;;;;;;;;;;;;;;5.23;86.87;100670.44;5127994;27;20055;-47
2021/12/19 03:20:22;;;;;;;11.13;2.88;;;;;;;5.22;86.77;100666.16;5115916;27;20062;-47
2021/12/19 03:22:49;;;;;;;9.43;3.03;;;;;;;5.21;86.33;100679.84;5111839;27;20054;-48
2021/12/19 03:25:17;;;;;;;9.48;2.92;;;;;;;5.18;86.77;100687.50;5115355;27;20039;-48
2021/12/19 03:27:45;;;;;;;21.77;4.10;;;;;;;5.15;86.55;100699.44;5113160;27;20053;-47
2021/12/19 03:30:13;;;;;;;12.38;3.53;;;;;;;5.14;86.70;100702.84;5112268;27;20104;-46
2021/12/19 03:32:40;;;;;;;8.05;2.90;;;;;;;5.14;86.39;100710.56;5112638;27;20051;-50
2021/12/19 03:35:08;;;;;;;9.95;2.95;;;;;;;5.11;86.59;100698.53;5112923;27;21862;-48
2021/12/19 03:37:35;;;;;;;11.05;2.67;;;;;;;5.10;86.76;100701.09;5110553;27;20097;-47
2021/12/19 03:40:09;;;;;;;11.63;3.50;;;;;;;5.08;86.36;100689.09;5113836;27;20055;-46
2021/12/19 03:42:38;;;;;;;10.05;2.75;;;;;;;5.06;86.58;100679.63;5112891;27;20050;-50
2021/12/19 03:45:10;;;;;;;7.95;2.67;;;;;;;5.06;86.35;100674.50;5109668;27;20051;-48
2021/12/19 03:47:38;;;;;;;7.60;2.58;;;;;;;5.04;86.45;100669.34;5111725;27;20050;-47
2021/12/19 03:50:07;;;;;;;9.55;2.78;;;;;;;5.03;86.30;100675.31;5109391;27;20043;-47
2021/12/19 03:52:34;;;;;;;8.75;2.90;;;;;;;5.02;86.51;100663.31;5109775;27;20446;-49
2021/12/19 03:55:02;;;;;;;7.95;2.65;;;;;;;5.00;86.47;100661.56;5112103;28;20043;-47
2021/12/19 03:57:29;;;;;;;12.07;3.85;;;;;;;4.96;86.42;100652.97;5112296;28;20043;-51
2021/12/19 03:59:56;;;;;;;7.10;2.45;;;;;;;4.92;86.59;100656.34;5116021;28;20078;-51
2021/12/19 04:02:26;;;;;;;5.88;2.60;;;;;;;4.87;86.68;100668.25;5113146;28;21824;-48
2021/12/19 04:04:56;;;;;;;13.98;2.83;;;;;;;4.85;86.97;100658.81;5119503;27;20130;-45
2021/12/19 04:07:23;;;;;;;7.85;2.65;;;;;;;4.82;87.19;100648.50;5112450;28;20039;-48
2021/12/19 04:09:50;;;;;;;8.20;2.67;;;;;;;4.79;87.02;100633.03;5112967;28;20051;-47
2021/12/19 04:12:18;;;;;;;7.85;2.58;;;;;;;4.75;87.26;100632.13;5112239;28;20531;-48
2021/12/19 04:14:45;;;;;;;9.95;2.90;;;;;;;4.70;86.91;100614.09;5110264;28;20100;-51
2021/12/19 04:17:12;;;;;;;9.18;2.50;;;;;;;4.67;87.44;100628.56;5107561;28;20054;-49
2021/12/19 04:19:41;;;;;;;8.20;2.40;;;;;;;4.63;87.32;100622.53;5111512;28;20515;-50
2021/12/19 04:22:08;;;;;;;8.98;2.97;;;;;;;4.61;87.51;100644.75;5110344;28;20051;-47
2021/12/19 04:24:35;;;;;;;6.35;2.22;;;;;;;4.57;87.66;100657.53;5109117;27;20051;-49
2021/12/19 04:27:03;;;;;;;9.48;2.80;;;;;;;4.55;87.64;100659.22;5110432;28;20957;-46
2021/12/19 04:29:30;;;;;;;6.47;2.30;;;;;;;4.53;88.01;100650.63;5115127;28;20051;-48
2021/12/19 04:31:57;;;;;;;6.03;2.53;;;;;;;4.54;87.68;100652.34;5111247;28;20050;-47
2021/12/19 04:34:25;;;;;;;10.52;2.58;;;;;;;4.51;87.68;100637.75;5112307;27;20050;-48
2021/12/19 04:37:00;;;;;;;6.90;2.42;;;;;;;4.48;88.11;100637.72;5113265;27;20151;-48
2021/12/19 04:39:37;;;;;;;9.55;2.40;;;;;;;4.46;87.97;100638.53;5117595;27;20039;-50
2021/12/19 04:53:20;;;;;;;8.88;2.70;;;;;;;4.36;87.90;100635.84;5096035;27;20062;-51
2021/12/19 05:01:59;;;;;;;9.82;2.55;;;;;;;4.32;88.31;100631.50;5080158;28;20052;-48
2021/12/19 05:05:01;;;;;;;6.70;1.95;;;;;;;4.31;88.21;100649.44;5089713;27;20431;-50
2021/12/19 05:15:43;;;;;;;5.63;1.92;;;;;;;4.23;88.66;100657.03;5091055;27;19974;-48
2021/12/19 05:18:10;;;;;;;5.93;2.13;;;;;;;4.22;88.34;100644.16;5090315;27;20142;-47
2021/12/19 05:20:39;;;;;;;7.65;2.20;;;;;;;4.22;88.36;100665.56;5090208;27;20404;-48
2021/12/19 05:23:16;;;;;;;6.70;1.90;;;;;;;4.20;88.29;100644.16;5091024;27;20047;-49
2021/12/19 05:25:45;;;;;;;6.20;2.30;;;;;;;4.21;nan;100657.84;5089747;27;20044;-48
2021/12/19 05:28:12;;;;;;;8.85;2.40;;;;;;;4.21;88.97;100648.44;5091853;27;20105;-47
2021/12/19 05:30:39;;;;;;;10.30;3.00;;;;;;;4.21;88.23;100648.44;5090111;27;21103;-48
2021/12/19 05:33:07;;;;;;;8.45;2.35;;;;;;;4.20;88.22;100656.97;5091940;27;20055;-50
2021/12/19 05:35:56;;;;;;;7.63;2.28;;;;;;;4.19;88.23;100655.25;5088606;27;20052;-49
2021/12/19 05:45:12;;;;;;;8.95;2.53;;;;;;;4.18;88.79;100643.25;5062641;28;20068;-47
2021/12/19 05:47:01;;;;;;;8.27;2.58;;;;;;;4.18;88.58;100653.53;5086770;27;20059;-48
2021/12/19 05:49:28;;;;;;;8.23;2.58;;;;;;;4.18;88.62;100648.38;5090789;28;20048;-48
2021/12/19 05:51:57;;;;;;;5.60;2.08;;;;;;;4.19;88.18;100649.25;5106717;27;20074;-49
2021/12/19 05:54:24;;;;;;;7.25;2.60;;;;;;;4.19;88.15;100644.13;5126344;27;20038;-48
2021/12/19 05:56:52;;;;;;;9.40;2.42;;;;;;;4.17;88.60;100646.66;5119401;27;20411;-47
2021/12/19 05:59:20;;;;;;;7.80;2.22;;;;;;;4.16;88.37;100644.91;5112738;27;20063;-46
2021/12/19 06:01:47;;;;;;;8.45;2.55;;;;;;;4.15;88.76;100630.34;5115616;27;20108;-47
2021/12/19 06:04:14;;;;;;;5.75;2.33;;;;;;;4.15;88.42;100632.91;5116418;27;20415;-50
2021/12/19 06:06:42;;;;;;;7.70;2.15;;;;;;;4.13;88.54;100630.31;5115061;27;20138;-47
2021/12/19 06:09:09;;;;;;;6.15;2.00;;;;;;;4.11;88.67;100623.44;5114834;27;20433;-48
2021/12/19 06:11:36;;;;;;;5.40;2.00;;;;;;;4.11;88.45;100626.88;5115753;27;20047;-46
2021/12/19 06:14:05;;;;;;;6.30;2.10;;;;;;;4.11;88.44;100626.00;5119166;27;20062;-47
2021/12/19 06:16:32;;;;;;;5.22;1.88;;;;;;;4.11;88.71;100631.16;5114738;27;21018;-50
2021/12/19 06:18:59;;;;;;;8.07;1.85;;;;;;;4.12;88.49;100632.88;5114125;27;20047;-47
2021/12/19 06:21:26;;;;;;;8.23;2.30;;;;;;;4.10;88.37;100621.72;5118854;27;20073;-48
2021/12/19 06:23:53;;;;;;;5.15;2.00;;;;;;;4.07;88.29;100629.38;5114314;27;20047;-49
2021/12/19 06:26:20;;;;;;;6.28;1.92;;;;;;;4.06;87.97;100622.50;5116824;27;20778;-50
2021/12/19 06:28:48;;;;;;;9.70;2.30;;;;;;;4.05;88.38;100618.22;5112208;27;20051;-48
2021/12/19 06:31:17;;;;;;;8.25;2.08;;;;;;;4.03;nan;100627.59;5112130;27;20470;-47
2021/12/19 06:33:44;;;;;;;4.28;1.90;;;;;;;4.02;88.50;100639.56;5116646;27;20447;-46
2021/12/19 06:36:11;;;;;;;7.65;2.25;;;;;;;4.01;88.45;100634.41;5113057;27;20109;-50
2021/12/19 06:38:39;;;;;;;6.43;2.25;;;;;;;4.01;87.95;100642.97;5111406;27;20074;-47
2021/12/19 06:41:06;;;;;;;6.30;2.40;;;;;;;4.02;88.60;100652.38;5111238;27;20074;-47
2021/12/19 06:43:33;;;;;;;6.07;2.70;;;;;;;4.03;nan;100637.84;5116961;27;20047;-46
2021/12/19 06:46:01;;;;;;;6.85;2.95;;;;;;;4.06;88.64;100650.72;5122365;27;20173;-46
2021/12/19 06:48:29;;;;;;;6.65;2.40;;;;;;;4.07;88.21;100634.50;5110728;27;20058;-46
2021/12/19 06:50:57;;;;;;;7.50;2.47;;;;;;;4.08;88.79;100642.22;5114143;27;21035;-51
2021/12/19 06:53:24;;;;;;;7.03;1.83;;;;;;;4.11;88.75;100646.53;5115615;27;20051;-52
2021/12/19 06:55:51;;;;;;;5.70;1.80;;;;;;;4.14;88.48;100631.19;5111856;27;20043;-44
2021/12/19 06:58:18;;;;;;;5.43;2.05;;;;;;;4.17;88.31;100631.28;5110239;27;20048;-51
2021/12/19 07:00:46;;;;;;;9.80;2.03;;;;;;;4.20;88.43;100618.50;5110982;27;20058;-50
2021/12/19 07:03:14;;;;;;;6.80;1.92;;;;;;;4.24;88.51;100627.09;5112094;27;20062;-52
2021/12/19 07:05:43;;;;;;;5.82;1.98;;;;;;;4.26;88.14;100628.84;5111052;27;20048;-49
2021/12/19 07:08:10;;;;;;;6.50;1.95;;;;;;;4.29;87.79;100618.63;5109790;27;20043;-47
2021/12/19 07:10:37;;;;;;;6.85;1.85;;;;;;;4.33;87.78;100622.97;5115930;27;20062;-51
2021/12/19 07:13:04;;;;;;;4.32;1.70;;;;;;;4.34;87.51;100627.25;5114414;27;20050;-45
2021/12/19 07:15:32;;;;;;;5.07;2.13;;;;;;;4.37;87.44;100614.47;5112237;27;20069;-49
2021/12/19 07:18:02;;;;;;;5.13;2.22;;;;;;;4.39;87.52;100611.94;5114617;27;20043;-47
2021/12/19 07:20:29;;;;;;;4.90;1.60;;;;;;;4.40;87.44;100603.38;5115076;27;20097;-45
2021/12/19 07:22:58;;;;;;;4.60;2.17;;;;;;;4.42;87.39;100605.13;5119781;27;20485;-46
2021/12/19 07:25:25;;;;;;;5.22;1.85;;;;;;;4.42;87.00;100602.56;5117065;27;20044;-44
2021/12/19 07:27:53;;;;;;;13.02;2.78;;;;;;;4.44;87.29;100600.88;5125245;27;20059;-46
2021/12/19 07:30:24;;;;;;;12.95;3.55;;;;;;;4.46;86.71;100595.78;5118033;27;20545;-46
2021/12/19 07:32:51;;;;;;;17.67;7.47;;;;;;;4.49;87.05;100593.25;5115955;27;20055;-48
2021/12/19 07:35:19;;;;;;;7.28;3.05;;;;;;;4.52;86.50;100587.28;5132895;27;20483;-48
2021/12/19 07:37:48;;;;;;;7.90;2.15;;;;;;;4.51;86.88;100583.84;5110919;27;20043;-45
2021/12/19 07:40:19;;;;;;;5.72;2.80;;;;;;;4.52;86.42;100592.41;5115782;27;20051;-47
2021/12/19 07:42:47;;;;;;;10.15;3.22;;;;;;;4.55;86.38;100597.59;5130996;27;20096;-45
2021/12/19 07:45:16;;;;;;;14.15;4.35;;;;;;;4.57;86.30;100590.78;5125035;27;20399;-45
2021/12/19 07:47:43;;;;;;;11.57;3.58;;;;;;;4.59;86.36;100589.09;5122024;27;20039;-45
2021/12/19 07:50:12;;;;;;;8.18;2.70;;;;;;;4.61;86.14;100582.28;5135566;27;20051;-45
2021/12/19 07:52:40;;;;;;;6.30;2.47;;;;;;;4.62;86.19;100584.00;5134181;27;20043;-45
2021/12/19 07:55:08;;;;;;;7.53;2.50;;;;;;;4.64;85.54;100577.19;5136531;27;20051;-45
2021/12/19 07:57:37;;;;;;;6.10;2.33;;;;;;;4.63;85.74;100575.47;5135980;27;20050;-47
2021/12/19 08:00:06;;;;;;;4.32;1.60;;;;;;;4.64;85.87;100578.03;5130149;27;20050;-40
2021/12/19 08:02:34;;;;;;;10.57;2.25;;;;;;;4.63;85.70;100571.19;5130395;27;20051;-40
2021/12/19 08:05:01;;;;;;;8.40;1.95;;;;;;;4.62;85.56;100573.72;5126568;27;20043;-43
2021/12/19 08:07:28;;;;;;;7.18;2.20;;;;;;;4.63;85.53;100575.47;5132742;27;20055;-43
2021/12/19 08:10:11;;;;;;;5.22;1.95;;;;;;;4.63;85.58;100580.59;5133712;27;20043;-43
2021/12/19 08:12:39;;;;;;;6.53;2.10;;;;;;;4.64;86.01;100579.75;5134886;27;20046;-43
2021/12/19 08:15:07;;;;;;;12.32;5.03;;;;;;;4.65;85.61;100576.34;5133303;27;20092;-43
2021/12/19 08:17:35;;;;;;;5.50;2.20;;;;;;;4.68;85.66;100568.66;5137165;27;20047;-46
2021/12/19 08:20:04;;;;;;;7.72;2.50;;;;;;;4.70;85.89;100587.56;5132733;27;20106;-45
2021/12/19 08:22:32;;;;;;;8.57;3.60;;;;;;;4.71;86.06;100595.28;5127014;27;20070;-44
2021/12/19 08:24:59;;;;;;;8.93;3.08;;;;;;;4.70;85.94;100585.00;5124682;27;20051;-44
2021/12/19 08:27:27;;;;;;;11.48;4.20;;;;;;;4.72;85.84;100580.75;5138576;27;20050;-46
2021/12/19 08:29:56;;;;;;;8.02;3.05;;;;;;;4.73;85.91;100587.59;5137080;27;20059;-43
2021/12/19 08:32:23;;;;;;;10.68;3.75;;;;;;;4.77;86.29;100573.94;5135995;27;20051;-41
2021/12/19 08:34:50;;;;;;;14.93;5.15;;;;;;;4.80;86.01;100574.00;5142903;27;20447;-43
2021/12/19 08:37:18;;;;;;;7.93;1.92;;;;;;;4.82;85.86;100562.03;5139225;27;20041;-44
2021/12/19 08:39:46;;;;;;;10.07;2.42;;;;;;;4.84;85.37;100551.78;5139950;27;20054;-44
2021/12/19 08:42:14;;;;;;;7.25;3.22;;;;;;;4.83;85.91;100558.63;5141415;27;20047;-45
2021/12/19 08:44:41;;;;;;;6.53;2.00;;;;;;;4.87;85.70;100555.25;5143730;27;20039;-43
2021/12/19 08:47:10;;;;;;;9.70;2.92;;;;;;;4.91;85.54;100556.13;5142708;27;20050;-43
2021/12/19 08:49:37;;;;;;;8.00;2.90;;;;;;;4.95;85.70;100563.03;5140502;27;20074;-43
2021/12/19 08:52:05;;;;;;;6.05;2.67;;;;;;;4.94;85.33;100569.88;5109383;27;20070;-45
2021/12/19 08:54:32;;;;;;;9.40;2.53;;;;;;;4.97;85.58;100576.75;5104589;27;20400;-42
2021/12/19 08:56:59;;;;;;;8.07;2.10;;;;;;;4.99;85.40;100585.34;5099757;27;20074;-42
2021/12/19 08:59:28;;;;;;;5.60;2.63;;;;;;;4.99;85.16;100581.06;5094878;28;20048;-47
2021/12/19 09:01:57;;;;;;;6.40;2.03;;;;;;;5.01;84.70;100576.81;5096898;28;20477;-43
2021/12/19 09:04:26;;;;;;;6.43;1.95;;;;;;;5.02;84.49;100575.09;5106661;27;20101;-46
2021/12/19 09:06:56;;;;;;;6.40;2.33;;;;;;;5.03;84.75;100571.69;5096231;28;20473;-47
2021/12/19 09:09:23;;;;;;;6.13;2.60;;;;;;;5.04;84.70;100579.41;5101053;27;20106;-49
2021/12/19 09:11:52;;;;;;;4.05;2.05;;;;;;;5.06;84.86;100579.44;5098908;27;20484;-48
2021/12/19 09:14:19;;;;;;;6.70;2.30;;;;;;;5.08;84.72;100581.16;5098044;28;20044;-46
2021/12/19 09:16:47;;;;;;;7.53;2.50;;;;;;;5.10;84.37;100585.47;5104451;27;20059;-43
2021/12/19 09:19:15;;;;;;;11.05;2.10;;;;;;;5.05;84.69;100570.88;5102790;28;20058;-43
2021/12/19 09:21:44;;;;;;;6.75;2.67;;;;;;;5.07;84.42;100583.72;5100378;28;20044;-47
2021/12/19 09:24:12;;;;;;;6.18;2.47;;;;;;;5.07;84.57;100574.31;5098068;28;20514;-42
2021/12/19 09:26:39;;;;;;;7.18;2.13;;;;;;;5.08;84.28;100576.03;5095760;27;20044;-44
2021/12/19 09:29:07;;;;;;;8.35;2.83;;;;;;;5.11;84.26;100584.63;5096821;28;20476;-43
2021/12/19 09:31:34;;;;;;;4.60;2.15;;;;;;;5.12;84.23;100571.78;5108034;27;20057;-44
2021/12/19 09:34:01;;;;;;;5.78;2.10;;;;;;;5.11;83.93;100575.19;5101554;28;20055;-45
2021/12/19 09:36:28;;;;;;;5.30;2.15;;;;;;;5.13;84.21;100582.94;5100595;27;20052;-38
2021/12/19 09:38:57;;;;;;;3.75;1.70;;;;;;;5.14;83.92;100584.66;5099701;27;20044;-43
2021/12/19 09:41:28;;;;;;;7.03;2.38;;;;;;;5.14;83.54;100574.38;5100843;27;20047;-45
2021/12/19 09:43:58;;;;;;;5.80;1.98;;;;;;;5.14;83.60;100564.97;5103645;28;20039;-44
2021/12/19 09:46:30;;;;;;;6.32;2.00;;;;;;;5.18;83.58;100565.84;5103170;27;20143;-44
2021/12/19 09:48:58;;;;;;;6.57;2.42;;;;;;;5.18;83.61;100571.00;5101612;27;20158;-45
2021/12/19 09:51:25;;;;;;;6.00;2.10;;;;;;;5.19;83.63;100565.00;5109219;27;20424;-44
2021/12/19 09:53:52;;;;;;;6.68;2.42;;;;;;;5.20;83.51;100559.03;5113849;27;20047;-44
2021/12/19 09:56:21;;;;;;;5.00;2.10;;;;;;;5.20;83.63;100553.88;5117803;27;20039;-46
2021/12/19 09:58:50;;;;;;;6.75;2.15;;;;;;;5.19;83.25;100558.16;5114805;27;20040;-44
2021/12/19 10:01:18;;;;;;;6.80;2.20;;;;;;;5.22;83.11;100547.09;5114745;27;20472;-46
2021/12/19 10:03:45;;;;;;;6.55;2.10;;;;;;;5.24;82.80;100535.09;5118561;27;20453;-40
2021/12/19 10:06:14;;;;;;;5.30;1.92;;;;;;;5.28;82.76;100536.84;5113632;27;20141;-42
2021/12/19 10:08:42;;;;;;;4.47;2.22;;;;;;;5.31;82.28;100534.31;5116460;27;20050;-40
2021/12/19 10:11:32;;;;;;;4.80;1.73;;;;;;;5.33;82.86;100530.06;5116000;27;20055;-40
2021/12/19 10:14:00;;;;;;;8.45;2.15;;;;;;;5.36;82.40;100535.22;5118613;27;20051;-40
2021/12/19 10:16:29;;;;;;;5.43;1.77;;;;;;;5.38;82.36;100518.09;5117581;27;20455;-43
2021/12/19 10:19:00;;;;;;;7.45;2.22;;;;;;;5.42;82.12;100509.56;5112478;27;20047;-41
2021/12/19 10:21:28;;;;;;;5.32;1.83;;;;;;;5.46;81.78;100511.31;5114154;27;20464;-45
2021/12/19 10:24:00;;;;;;;4.75;2.35;;;;;;;5.50;81.79;100513.06;5113293;27;20054;-46
2021/12/19 10:26:41;;;;;;;5.72;2.10;;;;;;;5.56;81.89;100518.25;5111336;27;20039;-41
2021/12/19 10:29:10;;;;;;;7.80;2.35;;;;;;;5.61;81.72;100526.88;5111541;27;20523;-45
2021/12/19 10:31:38;;;;;;;7.15;2.63;;;;;;;5.64;81.11;100521.75;5111900;27;20052;-44
2021/12/19 10:34:22;;;;;;;5.50;2.90;;;;;;;5.68;81.06;100522.63;5112525;27;20048;-42
2021/12/19 10:36:50;;;;;;;5.95;2.47;;;;;;;5.70;81.04;100514.09;5110061;27;20141;-41
2021/12/19 10:39:19;;;;;;;5.50;2.00;;;;;;;5.74;80.67;100511.56;5107895;27;20457;-47
2021/12/19 10:41:58;;;;;;;5.90;2.03;;;;;;;5.70;80.50;100496.09;5107300;27;20063;-44
2021/12/19 10:47:22;;;;;;;4.72;2.22;;;;;;;5.70;80.64;100523.50;5116724;27;20065;-46
2021/12/19 10:49:49;;;;;;;8.43;2.53;;;;;;;5.70;80.43;100520.94;5109742;27;20043;-44
2021/12/19 10:52:33;;;;;;;8.38;3.15;;;;;;;5.68;80.22;100522.63;5096127;28;20060;-44
2021/12/19 10:55:04;;;;;;;7.22;2.17;;;;;;;5.69;80.21;100520.09;5099166;28;20040;-45
2021/12/19 10:57:38;;;;;;;6.63;2.33;;;;;;;5.68;80.01;100513.22;5101074;28;20062;-45
2021/12/19 11:00:10;;;;;;;10.13;2.35;;;;;;;5.73;79.49;100504.69;5094185;28;20421;-44
2021/12/19 11:02:40;;;;;;;7.90;2.72;;;;;;;5.75;79.06;100503.00;5100177;28;20039;-47
2021/12/19 11:05:23;;;;;;;6.18;2.28;;;;;;;5.76;77.92;100492.72;5093196;28;20048;-47
2021/12/19 11:08:01;;;;;;;4.38;1.73;;;;;;;5.77;76.92;100496.16;5092619;28;20048;-46
2021/12/19 11:10:29;;;;;;;3.60;1.15;;;;;;;5.75;75.33;100490.16;5100221;28;20055;-45
2021/12/19 11:13:12;;;;;;;6.65;1.27;;;;;;;5.72;73.51;100493.53;5095865;28;20050;-44
2021/12/19 11:15:41;;;;;;;5.63;1.30;;;;;;;5.74;72.85;100480.72;5099377;28;20055;-46
2021/12/19 11:18:08;;;;;;;4.60;0.85;;;;;;;5.71;71.33;100487.53;5094274;28;20058;-43
2021/12/19 11:20:36;;;;;;;3.08;0.93;;;;;;;5.71;71.21;100466.09;5097406;28;20055;-47
2021/12/19 11:23:04;;;;;;;6.07;1.10;;;;;;;5.73;70.98;100453.25;5097529;28;20098;-47
2021/12/19 11:25:32;;;;;;;6.47;2.83;;;;;;;5.68;69.16;100441.19;5102021;28;20062;-47
2021/12/19 11:28:01;;;;;;;4.97;1.70;;;;;;;5.68;68.83;100443.78;5097216;28;20051;-47
2021/12/19 11:30:30;;;;;;;5.05;1.70;;;;;;;5.69;68.78;100452.34;5094781;28;20054;-44
2021/12/19 11:33:13;;;;;;;3.53;0.82;;;;;;;5.66;66.64;100449.75;5093551;28;20044;-44
2021/12/19 11:35:46;;;;;;;3.55;1.17;;;;;;;5.69;68.45;100458.34;5100093;28;20447;-44
2021/12/19 11:38:18;;;;;;;3.28;1.20;;;;;;;5.71;68.71;100455.78;5096197;28;20399;-45
2021/12/19 11:40:46;;;;;;;5.18;1.33;;;;;;;5.70;68.27;100460.06;5093788;28;20507;-42
2021/12/19 11:43:14;;;;;;;2.85;1.40;;;;;;;5.68;68.25;100451.50;5099571;28;20051;-44
2021/12/19 11:45:49;;;;;;;4.22;1.10;;;;;;;5.64;67.19;100443.75;5096421;28;20067;-47
2021/12/19 11:48:22;;;;;;;4.13;1.30;;;;;;;5.61;66.72;100434.31;5093999;28;20047;-46
2021/12/19 11:50:52;;;;;;;7.43;2.17;;;;;;;5.62;67.16;100433.44;5102598;27;20405;-46
2021/12/19 11:53:25;;;;;;;6.95;2.40;;;;;;;5.62;67.34;100443.72;5118795;27;20580;-45
2021/12/19 11:55:54;;;;;;;3.05;1.10;;;;;;;5.61;66.54;100449.72;5120842;27;20450;-45
2021/12/19 11:58:27;;;;;;;3.55;1.30;;;;;;;5.59;66.67;100450.56;5117983;27;20043;-45
2021/12/19 12:01:21;;;;;;;5.13;1.30;;;;;;;5.60;65.86;100463.44;5120904;27;20461;-44
2021/12/19 12:03:52;;;;;;;5.10;1.30;;;;;;;5.53;66.17;100461.66;5117963;27;20480;-44
2021/12/19 12:06:38;;;;;;;3.95;1.70;;;;;;;5.44;66.10;100456.47;5122045;27;20487;-46
2021/12/19 12:09:27;;;;;;;4.40;1.30;;;;;;;5.36;65.50;100447.84;5121497;27;20043;-44
2021/12/19 12:12:33;;;;;;;4.18;1.00;;;;;;;5.29;65.88;100446.06;5122133;27;20101;-43
2021/12/19 12:15:09;;;;;;;3.33;1.40;;;;;;;5.26;65.41;100451.19;5114951;27;20137;-43
2021/12/19 12:17:54;;;;;;;4.38;0.70;;;;;;;5.24;65.28;100452.88;5119476;27;20453;-46
2021/12/19 12:20:26;;;;;;;3.20;0.75;;;;;;;5.18;65.80;100442.50;5119668;27;20058;-46
2021/12/19 12:23:10;;;;;;;3.88;0.82;;;;;;;5.20;65.81;100445.94;5124944;27;20043;-46
2021/12/19 12:25:42;;;;;;;2.88;0.98;;;;;;;5.17;65.26;100454.50;5110024;27;20044;-47
2021/12/19 12:28:10;;;;;;;3.05;0.90;;;;;;;5.20;65.56;100448.53;5117559;27;20050;-50
2021/12/19 12:30:45;;;;;;;5.30;1.30;;;;;;;5.24;65.46;100452.88;5121422;27;20460;-47
2021/12/19 12:33:16;;;;;;;3.53;0.95;;;;;;;5.21;65.28;100453.72;5118444;27;20055;-48
2021/12/19 12:35:45;;;;;;;2.95;0.80;;;;;;;5.16;65.54;100427.06;5116229;27;20043;-47
2021/12/19 12:38:13;;;;;;;4.38;0.73;;;;;;;5.11;65.18;100431.31;5126106;27;20052;-49